Archival Weather

NSFA McMurdo Sound

NSFA McMurdo Sound, Antarctica (NZCM)

Report from: Friday, September 23, 2022 7:09 PM UTC
Current time: Sunday, December 4, 2022 12:38 PM UTC

Current weather
Weather history
Weather forecast

Present weatherLight snow
Temperature-16.6°C (2.1°F)
Wind chill-24.8°C (-12.6°F)
Dew point-22.6°C (-8.7°F)
Winds 8 kts (4.1 m/s, 9.2 mph) South (170°)
Wind gusts 15 kts (7.7 m/s, 17.3 mph)
Visibility6.2 mi. (10 km)
Clouds Few clouds 4,400 ft. (1,341 m)
Ceiling: Broken clouds 5,000 ft. (1,524 m)
Overcast 7,500 ft. (2,286 m)
Altimeter28.61 in.Hg (969 mB)
Precip. events Snow began 7:09 PM
Relative humidity60 %
Density altitude-2,427 ft. (-740 m)
Sea-level pressure107.0 kPa (1070 mB, 31.59 in.Hg)
Remarks Fully automated report
System requires maintenance
Special weather observation
Automated weather observing station with precipitation discriminator
Flight conditions Visual Meteorological Conditions
Raw dataSPECI NZCM 231909Z AUTO 17008G15KT 9999 -SN FEW044 BKN050 OVC075 M17/M23 A2861 RMK AO2 SNB1909 SLP696 T11661226 $
An error has occurred. This application may no longer respond until reloaded. Reload 🗙